Reklama

Seznam meteostanic a jejich METAR

Vyhledat místa podle abecedy:
A B C D E F G H I J K L M N O P Q R S T U V W X Y Z

Filtrovat:

ID stanice:
a/nebo
Název místa (fulltext):
 
Místo (ID)Naposledy načteno 
Brno - Tuřany (Brno/Tu) 08.12.2019 15:00 UTC Zobrazit data
Místo: Brno - Tuřany
Teplota: 6 °C (pocitová: -0.2 °C)
Vítr: 4 m/s z(e) 160°
Počasí: skoro zataženo
Dohlednost: 45 km
Zákl. oblačnosti: 6/8 7200 m
Vlhkost: 76%
Červená - Opava (Cervena/uL) 08.12.2019 15:00 UTC Zobrazit data
Místo: Červená - Opava
Teplota: 3 °C (pocitová: -6.6 °C)
Vítr: 9 m/s z(e) 200°
Počasí: skoro zataženo
Dohlednost: 25 km
Zákl. oblačnosti: 2/8 780 m;6/8 7200 m
Vlhkost: 87%
České Budějovice (C.Budej/po) 08.12.2019 15:00 UTC Zobrazit data
Místo: České Budějovice
Teplota: 8 °C (pocitová: 5.5 °C)
Vítr: 1 m/s z(e) 0°
Počasí:
Dohlednost: 35 km
Zákl. oblačnosti: N/A
Vlhkost: 62%
Cheb (Cheb) 08.12.2019 15:00 UTC Zobrazit data
Místo: Cheb
Teplota: 7 °C (pocitová: -0.3 °C)
Vítr: 7 m/s z(e) 210°
Počasí: skoro zataženo
Dohlednost: 40 km
Zákl. oblačnosti: 4/8 480 m;4/8 2700 m
Vlhkost: 81%
Chotusice - Čáslav (Caslav) 08.12.2019 15:00 UTC Zobrazit data
Místo: Chotusice - Čáslav
Teplota: 9 °C (pocitová: 5.6 °C)
Vítr: 2 m/s z(e) 180°
Počasí: skoro zataženo
Dohlednost: 20 km
Zákl. oblačnosti: 2/8 1500 m;7/8 6300 m
Vlhkost: 62%
Churáňov (Churanov) 08.12.2019 15:00 UTC Zobrazit data
Místo: Churáňov
Teplota: 2 °C (pocitová: -9 °C)
Vítr: 11 m/s z(e) 230°
Počasí: skoro zataženo
Dohlednost: 60 km
Zákl. oblačnosti: 2/8 150 m;7/8 7500 m
Vlhkost: 100%
Doksany - Litoměřice (Doksany) 08.12.2019 15:00 UTC Zobrazit data
Místo: Doksany - Litoměřice
Teplota: 10 °C (pocitová: 4.8 °C)
Vítr: 5 m/s z(e) 240°
Počasí: skoro zataženo
Dohlednost: 45 km
Zákl. oblačnosti: 2/8 1020 m;7/8 1290 m
Vlhkost: 67%
Dukovany (Dukovany) 08.12.2019 15:00 UTC Zobrazit data
Místo: Dukovany
Teplota: 8 °C (pocitová: 0.8 °C)
Vítr: 8 m/s z(e) 180°
Počasí: skoro zataženo
Dohlednost: 35 km
Zákl. oblačnosti: 3/8 3900 m;6/8 9000 m
Vlhkost: 71%
Holešov (Holesov) 08.12.2019 15:00 UTC Zobrazit data
Místo: Holešov
Teplota: 6 °C (pocitová: -1.2 °C)
Vítr: 6 m/s z(e) 150°
Počasí: skoro zataženo
Dohlednost: 40 km
Zákl. oblačnosti: 2/8 1410 m;6/8 6900 m
Vlhkost: 71%
Kadaň - Tušimice (Tusimice) 08.12.2019 15:00 UTC Zobrazit data
Místo: Kadaň - Tušimice
Teplota: 9 °C (pocitová: 2.1 °C)
Vítr: 9 m/s z(e) 250°
Počasí: déšť
Dohlednost: 30 km
Zákl. oblačnosti: 7/8 780 m
Vlhkost: 76%
Karlovy Vary (K.Vary) 08.12.2019 15:00 UTC Zobrazit data
Místo: Karlovy Vary
Teplota: 7 °C (pocitová: 1.2 °C)
Vítr: 4 m/s z(e) 250°
Počasí: zataženo
Dohlednost: 40 km
Zákl. oblačnosti: 8/8 510 m
Vlhkost: 76%
Kocelovice (Kocelovice) 08.12.2019 15:00 UTC Zobrazit data
Místo: Kocelovice
Teplota: 7 °C (pocitová: 0.6 °C)
Vítr: 5 m/s z(e) 240°
Počasí: skoro zataženo
Dohlednost: 40 km
Zákl. oblačnosti: 6/8 750 m;5/8 6600 m
Vlhkost: 71%
Kopisty (Kopisty) 08.12.2019 15:00 UTC Zobrazit data
Místo: Kopisty
Teplota: 9 °C (pocitová: 3 °C)
Vítr: 6 m/s z(e) 200°
Počasí: skoro zataženo
Dohlednost: 35 km
Zákl. oblačnosti: 5/8 1110 m
Vlhkost: 71%
Kostelní Myslová (K.Myslova) 08.12.2019 15:00 UTC Zobrazit data
Místo: Kostelní Myslová
Teplota: 8 °C (pocitová: 4.4 °C)
Vítr: 2 m/s z(e) 0°
Počasí: skoro zataženo
Dohlednost: 55 km
Zákl. oblačnosti: 6/8 9000 m
Vlhkost: 62%
Křešín - Kramolín (Kramolin) 08.12.2019 15:00 UTC Zobrazit data
Místo: Křešín - Kramolín
Teplota: 6 °C (pocitová: 0.7 °C)
Vítr: 3 m/s z(e) 220°
Počasí: skoro zataženo
Dohlednost: 35 km
Zákl. oblačnosti: 7/8 8400 m
Vlhkost: 76%
Kuchařovice - Znojmo (Kucharovic) 08.12.2019 15:00 UTC Zobrazit data
Místo: Kuchařovice - Znojmo
Teplota: 8 °C (pocitová: 1.6 °C)
Vítr: 6 m/s z(e) 180°
Počasí: skoro zataženo
Dohlednost: 50 km
Zákl. oblačnosti: 1/8 6900 m;3/8 9000 m
Vlhkost: 76%
Liberec (Liberec) 08.12.2019 15:00 UTC Zobrazit data
Místo: Liberec
Teplota: 7 °C (pocitová: 0.2 °C)
Vítr: 6 m/s z(e) 150°
Počasí: zataženo
Dohlednost: 45 km
Zákl. oblačnosti: 1/8 390 m;4/8 780 m
Vlhkost: 71%
Luká (Luka) 08.12.2019 15:00 UTC Zobrazit data
Místo: Luká
Teplota: 7 °C (pocitová: 0.2 °C)
Vítr: 6 m/s z(e) 190°
Počasí: oblačno
Dohlednost: 35 km
Zákl. oblačnosti: 4/8 7800 m
Vlhkost: 71%
Lysá Hora (Lysa Hora) 08.12.2019 15:00 UTC Zobrazit data
Místo: Lysá Hora
Teplota: 0 °C (pocitová: -11.9 °C)
Vítr: 11 m/s z(e) 210°
Počasí: skoro zataženo
Dohlednost: 45 km
Zákl. oblačnosti: 1/8 30 m;6/8 6000 m
Vlhkost: 93%
Milešovka (Milesovka) 08.12.2019 15:00 UTC Zobrazit data
Místo: Milešovka
Teplota: 4 °C (pocitová: -7.3 °C)
Vítr: 16 m/s z(e) 240°
Počasí: déšť
Dohlednost: 65 km
Zákl. oblačnosti: 3/8 480 m;5/8 2100 m
Vlhkost: 93%
Mošnov (Ostrava/Mo) 08.12.2019 15:00 UTC Zobrazit data
Místo: Mošnov
Teplota: 8 °C (pocitová: 0.3 °C)
Vítr: 10 m/s z(e) 220°
Počasí: skoro zataženo
Dohlednost: 30 km
Zákl. oblačnosti: 5/8 4500 m
Vlhkost: 62%
Náměšť nad Oslavou (Namest n/O) 08.12.2019 15:00 UTC Zobrazit data
Místo: Náměšť nad Oslavou
Teplota: 7 °C (pocitová: 0.2 °C)
Vítr: 6 m/s z(e) 160°
Počasí: skoro zataženo
Dohlednost: 30 km
Zákl. oblačnosti: 1/8 3900 m;6/8 7500 m
Vlhkost: 71%
Pardubice (Pardubice) 08.12.2019 15:00 UTC Zobrazit data
Místo: Pardubice
Teplota: 8 °C (pocitová: 5.5 °C)
Vítr: 1 m/s z(e) 130°
Počasí: skoro zataženo
Dohlednost: 20 km
Zákl. oblačnosti: 1/8 1200 m;3/8 4500 m
Vlhkost: 66%
Pec pod Sněžkou (Pec p.Snez) 08.12.2019 15:00 UTC Zobrazit data
Místo: Pec pod Sněžkou
Teplota: 3 °C (pocitová: -2.1 °C)
Vítr: 2 m/s z(e) 290°
Počasí: zataženo
Dohlednost: 10 km
Zákl. oblačnosti: 8/8 330 m
Vlhkost: 87%
Plzeň město - Mikulka (Plzen/Miku) 08.12.2019 15:00 UTC Zobrazit data
Místo: Plzeň město - Mikulka
Teplota: 8 °C (pocitová: 0.8 °C)
Vítr: 8 m/s z(e) 220°
Počasí: skoro zataženo
Dohlednost: 75 km
Zákl. oblačnosti: 7/8 780 m
Vlhkost: 76%
Polom (Polom) 08.12.2019 15:00 UTC Zobrazit data
Místo: Polom
Teplota: 4 °C (pocitová: -5.1 °C)
Vítr: 8 m/s z(e) 190°
Počasí: zataženo
Dohlednost: 20 km
Zákl. oblačnosti: 8/8 600 m
Vlhkost: 87%
Praha - Karlov (Praha/Kar) 08.12.2019 15:00 UTC Zobrazit data
Místo: Praha - Karlov
Teplota: 9 °C (pocitová: 3 °C)
Vítr: 6 m/s z(e) 220°
Počasí: skoro zataženo
Dohlednost: 50 km
Zákl. oblačnosti: 6/8 930 m;5/8 4800 m
Vlhkost: 66%
Praha - Kbely (Praha/Kbe) 08.12.2019 15:00 UTC Zobrazit data
Místo: Praha - Kbely
Teplota: 9 °C (pocitová: 2.6 °C)
Vítr: 7 m/s z(e) 210°
Počasí: skoro zataženo
Dohlednost: 30 km
Zákl. oblačnosti: 4/8 900 m;7/8 7200 m
Vlhkost: 58%
Praha - Libuš (Praha/Lib) 08.12.2019 15:00 UTC Zobrazit data
Místo: Praha - Libuš
Teplota: 9 °C (pocitová: 3 °C)
Vítr: 6 m/s z(e) 220°
Počasí: zataženo
Dohlednost: 75 km
Zákl. oblačnosti: 6/8 870 m;6/8 3000 m
Vlhkost: 66%
Praha - Ruzyně (Praha/Ru) 08.12.2019 15:00 UTC Zobrazit data
Místo: Praha - Ruzyně
Teplota: 8 °C (pocitová: 0 °C)
Vítr: 11 m/s z(e) 230°
Počasí: skoro zataženo
Dohlednost: 75 km
Zákl. oblačnosti: 2/8 780 m;3/8 4500 m
Vlhkost: 71%
Přibyslav (Pribyslav) 08.12.2019 15:00 UTC Zobrazit data
Místo: Přibyslav
Teplota: 7 °C (pocitová: 3.1 °C)
Vítr: 2 m/s z(e) 0°
Počasí: skoro zataženo
Dohlednost: 35 km
Zákl. oblačnosti: 7/8 8700 m
Vlhkost: 71%
Přimda (Primda) 08.12.2019 15:00 UTC Zobrazit data
Místo: Přimda
Teplota: 4 °C (pocitová: -4.6 °C)
Vítr: 7 m/s z(e) 260°
Počasí: zataženo
Dohlednost: 70 km
Zákl. oblačnosti: 7/8 450 m
Vlhkost: 93%
Šerák (Serak) 08.12.2019 02:00 UTC Zobrazit data
Místo: Šerák
Teplota: 0 °C (pocitová: -9.7 °C)
Vítr: 6 m/s z(e) 260°
Počasí: mlha
Dohlednost: 100 m
Zákl. oblačnosti: 8/8 30 m
Vlhkost: 100%
Svratouch (Svratouch) 08.12.2019 15:00 UTC Zobrazit data
Místo: Svratouch
Teplota: 5 °C (pocitová: -2.7 °C)
Vítr: 6 m/s z(e) 210°
Počasí: skoro zataženo
Dohlednost: 35 km
Zákl. oblačnosti: 1/8 3000 m;7/8 6900 m
Vlhkost: 81%
Temelín (Temelin) 08.12.2019 15:00 UTC Zobrazit data
Místo: Temelín
Teplota: 7 °C (pocitová: 1.2 °C)
Vítr: 4 m/s z(e) 230°
Počasí: skoro zataženo
Dohlednost: 45 km
Zákl. oblačnosti: 4/8 1200 m;7/8 6600 m
Vlhkost: 71%
Ústí nad Labem - Kočkov (Usti n/L) 08.12.2019 15:00 UTC Zobrazit data
Místo: Ústí nad Labem - Kočkov
Teplota: 8 °C (pocitová: 1.6 °C)
Vítr: 6 m/s z(e) 230°
Počasí: déšť
Dohlednost: 70 km
Zákl. oblačnosti: 1/8 570 m;3/8 960 m
Vlhkost: 76%
Ústí nad Orlicí (Usti n/O) 08.12.2019 15:00 UTC Zobrazit data
Místo: Ústí nad Orlicí
Teplota: 7 °C (pocitová: 4.3 °C)
Vítr: 1 m/s z(e) 0°
Počasí: skoro zataženo
Dohlednost: 50 km
Zákl. oblačnosti: 2/8 3000 m;6/8 7500 m
Vlhkost: 76%
Aalborg (EKYT) 08.12.2019 14:50 UTC Zobrazit METAR
EKYT 081450Z AUTO 24017KT 9999 FEW024/// 07/06 Q0981
Aarhus (EKAH) 08.12.2019 10:50 UTC Zobrazit METAR
EKAH 081050Z 22011G22KT 170V280 9999 -DZ OVC009 09/09 Q0983
Abu Dhabi (OMAA) 08.12.2019 15:00 UTC Zobrazit METAR
OMAA 081500Z 36006KT CAVOK 25/18 Q1015 NOSIG
Abuja (DNAA) 08.12.2019 14:00 UTC Zobrazit METAR
DNAA 081400Z 21002KT CAVOK 35/16 Q1010 NOSIG
Accra (DGAA) 08.12.2019 14:00 UTC Zobrazit METAR
DGAA 081400Z 18010KT 150V210 9999 FEW015 31/24 Q1009 NOSIG
Addis Abeba (HAAB) 08.12.2019 14:00 UTC Zobrazit METAR
HAAB 081400Z 10014KT 9999 FEW030 20/10 Q1023
Agana (PGUM) 08.12.2019 14:54 UTC Zobrazit METAR
PGUM 081454Z 04005KT 10SM CLR 23/21 A2987 RMK AO2 SLP106 T02330211 58004
Ahe Island (NTHE) Zatím nenačteno  
Akureyri (BIAR) 08.12.2019 15:00 UTC Zobrazit METAR
BIAR 081500Z 32005KT 260V010 9999 BKN027 OVC035 M00/M05 Q1001 R01/490095 RMK WIND VADLAHEIDI 02412KT
Almaty (UAAA) Zatím nenačteno  
Amman (OJAM) 08.12.2019 12:00 UTC Zobrazit METAR
OJAM 081200Z 24011KT 4000 BR SCT025 BKN030 11/09 Q1016 NOSIG
Amsterdam (EHAM) 08.12.2019 14:55 UTC Zobrazit METAR
EHAM 081455Z 24021G31KT 210V270 9999 FEW027 10/05 Q0997 NOSIG
Antananarivo (FMMI) 08.12.2019 10:00 UTC Zobrazit METAR
FMMI 081000Z 03004KT 310V120 9999 BKN020 30/15 Q1014 NOSIG
1 2 3 ... 9 Další
Reklama

Počasí na Váš email

Emaily jsou bez reklamy a bez spamu



Odhlásit newsletter

Reklama


Lunární kalendář

  • 12.12.
  • 19.12.
  • 26.12.
  • 03.01.



Reklama


Reklama
Povinné ručení
Reklama



Reklama